sensor_id;sensor_type;location;lat;lon;timestamp;temperature;humidity
48579;DHT22;34357;51.948;6.132;2023-12-28T00:01:19;9.40;80.00
48579;DHT22;34357;51.948;6.132;2023-12-28T00:03:45;9.50;79.90
48579;DHT22;34357;51.948;6.132;2023-12-28T00:06:10;9.50;79.70
48579;DHT22;34357;51.948;6.132;2023-12-28T00:08:36;9.50;79.90
48579;DHT22;34357;51.948;6.132;2023-12-28T00:11:02;9.40;80.10
48579;DHT22;34357;51.948;6.132;2023-12-28T00:13:28;9.50;80.10
48579;DHT22;34357;51.948;6.132;2023-12-28T00:15:53;9.50;80.40
48579;DHT22;34357;51.948;6.132;2023-12-28T00:18:19;9.50;80.30
48579;DHT22;34357;51.948;6.132;2023-12-28T00:20:45;9.50;80.70
48579;DHT22;34357;51.948;6.132;2023-12-28T00:23:11;9.50;80.80
48579;DHT22;34357;51.948;6.132;2023-12-28T00:25:36;9.50;80.90
48579;DHT22;34357;51.948;6.132;2023-12-28T00:28:02;9.50;81.30
48579;DHT22;34357;51.948;6.132;2023-12-28T00:30:28;9.50;81.10
48579;DHT22;34357;51.948;6.132;2023-12-28T00:32:54;9.50;81.30
48579;DHT22;34357;51.948;6.132;2023-12-28T00:35:20;9.40;81.70
48579;DHT22;34357;51.948;6.132;2023-12-28T00:37:45;9.40;81.90
48579;DHT22;34357;51.948;6.132;2023-12-28T00:40:11;9.40;82.20
48579;DHT22;34357;51.948;6.132;2023-12-28T00:42:37;9.50;82.10
48579;DHT22;34357;51.948;6.132;2023-12-28T00:45:04;9.50;82.20
48579;DHT22;34357;51.948;6.132;2023-12-28T00:47:30;9.40;82.30
48579;DHT22;34357;51.948;6.132;2023-12-28T00:49:55;9.40;82.50
48579;DHT22;34357;51.948;6.132;2023-12-28T00:52:21;9.50;82.50
48579;DHT22;34357;51.948;6.132;2023-12-28T00:54:47;9.40;82.80
48579;DHT22;34357;51.948;6.132;2023-12-28T00:57:12;9.50;82.80
48579;DHT22;34357;51.948;6.132;2023-12-28T00:59:38;9.40;83.20
48579;DHT22;34357;51.948;6.132;2023-12-28T01:02:04;9.40;83.50
48579;DHT22;34357;51.948;6.132;2023-12-28T01:04:30;9.50;83.40
48579;DHT22;34357;51.948;6.132;2023-12-28T01:06:55;9.50;83.50
48579;DHT22;34357;51.948;6.132;2023-12-28T01:09:22;9.50;83.30
48579;DHT22;34357;51.948;6.132;2023-12-28T01:11:48;9.50;83.60
48579;DHT22;34357;51.948;6.132;2023-12-28T01:14:14;9.40;84.10
48579;DHT22;34357;51.948;6.132;2023-12-28T01:16:39;9.40;84.20
48579;DHT22;34357;51.948;6.132;2023-12-28T01:19:06;9.60;84.20
48579;DHT22;34357;51.948;6.132;2023-12-28T01:21:31;9.60;84.20
48579;DHT22;34357;51.948;6.132;2023-12-28T01:23:57;9.60;84.30
48579;DHT22;34357;51.948;6.132;2023-12-28T01:26:22;9.60;84.40
48579;DHT22;34357;51.948;6.132;2023-12-28T01:28:48;9.60;84.60
48579;DHT22;34357;51.948;6.132;2023-12-28T01:31:14;9.60;84.90
48579;DHT22;34357;51.948;6.132;2023-12-28T01:33:39;9.70;85.10
48579;DHT22;34357;51.948;6.132;2023-12-28T01:36:18;9.70;84.90
48579;DHT22;34357;51.948;6.132;2023-12-28T01:38:45;9.70;84.70
48579;DHT22;34357;51.948;6.132;2023-12-28T01:41:11;9.70;84.80
48579;DHT22;34357;51.948;6.132;2023-12-28T01:43:38;9.80;85.10
48579;DHT22;34357;51.948;6.132;2023-12-28T01:46:05;9.70;85.20
48579;DHT22;34357;51.948;6.132;2023-12-28T01:48:32;9.70;85.10
48579;DHT22;34357;51.948;6.132;2023-12-28T01:50:58;9.70;85.40
48579;DHT22;34357;51.948;6.132;2023-12-28T01:53:24;9.70;85.40
48579;DHT22;34357;51.948;6.132;2023-12-28T01:55:50;9.60;85.80
48579;DHT22;34357;51.948;6.132;2023-12-28T01:58:16;9.60;85.50
48579;DHT22;34357;51.948;6.132;2023-12-28T02:00:44;9.70;85.50
48579;DHT22;34357;51.948;6.132;2023-12-28T02:03:10;9.70;85.70
48579;DHT22;34357;51.948;6.132;2023-12-28T02:05:38;9.80;85.70
48579;DHT22;34357;51.948;6.132;2023-12-28T02:08:04;9.80;85.40
48579;DHT22;34357;51.948;6.132;2023-12-28T02:10:30;9.90;85.40
48579;DHT22;34357;51.948;6.132;2023-12-28T02:12:56;9.80;85.60
48579;DHT22;34357;51.948;6.132;2023-12-28T02:15:22;9.80;85.80
48579;DHT22;34357;51.948;6.132;2023-12-28T02:18:16;9.80;85.70
48579;DHT22;34357;51.948;6.132;2023-12-28T02:20:44;9.80;85.90
48579;DHT22;34357;51.948;6.132;2023-12-28T02:23:11;9.80;85.90
48579;DHT22;34357;51.948;6.132;2023-12-28T02:25:36;9.80;86.00
48579;DHT22;34357;51.948;6.132;2023-12-28T02:28:03;9.80;86.00
48579;DHT22;34357;51.948;6.132;2023-12-28T02:30:29;9.90;86.00
48579;DHT22;34357;51.948;6.132;2023-12-28T02:33:06;9.80;86.10
48579;DHT22;34357;51.948;6.132;2023-12-28T02:35:43;9.80;86.20
48579;DHT22;34357;51.948;6.132;2023-12-28T02:38:11;9.80;86.20
48579;DHT22;34357;51.948;6.132;2023-12-28T02:40:38;9.80;86.20
48579;DHT22;34357;51.948;6.132;2023-12-28T02:43:06;9.70;86.40
48579;DHT22;34357;51.948;6.132;2023-12-28T02:45:31;9.70;86.40
48579;DHT22;34357;51.948;6.132;2023-12-28T02:47:57;9.80;86.30
48579;DHT22;34357;51.948;6.132;2023-12-28T02:50:23;9.80;86.10
48579;DHT22;34357;51.948;6.132;2023-12-28T02:52:49;9.90;86.00
48579;DHT22;34357;51.948;6.132;2023-12-28T02:55:14;9.80;86.20
48579;DHT22;34357;51.948;6.132;2023-12-28T02:57:40;9.70;86.40
48579;DHT22;34357;51.948;6.132;2023-12-28T03:00:06;9.80;86.40
48579;DHT22;34357;51.948;6.132;2023-12-28T03:02:35;9.80;86.30
48579;DHT22;34357;51.948;6.132;2023-12-28T03:05:06;9.80;86.70
48579;DHT22;34357;51.948;6.132;2023-12-28T03:07:32;9.90;86.50
48579;DHT22;34357;51.948;6.132;2023-12-28T03:09:58;9.80;86.20
48579;DHT22;34357;51.948;6.132;2023-12-28T03:12:24;9.70;86.60
48579;DHT22;34357;51.948;6.132;2023-12-28T03:14:50;9.70;86.60
48579;DHT22;34357;51.948;6.132;2023-12-28T03:17:16;9.90;86.10
48579;DHT22;34357;51.948;6.132;2023-12-28T03:19:42;9.80;86.20
48579;DHT22;34357;51.948;6.132;2023-12-28T03:22:07;9.90;86.30
48579;DHT22;34357;51.948;6.132;2023-12-28T03:24:33;9.80;86.30
48579;DHT22;34357;51.948;6.132;2023-12-28T03:26:59;9.70;86.70
48579;DHT22;34357;51.948;6.132;2023-12-28T03:29:24;9.70;86.50
48579;DHT22;34357;51.948;6.132;2023-12-28T03:31:50;9.70;86.40
48579;DHT22;34357;51.948;6.132;2023-12-28T03:34:16;9.80;86.40
48579;DHT22;34357;51.948;6.132;2023-12-28T03:36:43;9.80;86.20
48579;DHT22;34357;51.948;6.132;2023-12-28T03:39:08;9.70;86.20
48579;DHT22;34357;51.948;6.132;2023-12-28T03:41:34;9.70;86.60
48579;DHT22;34357;51.948;6.132;2023-12-28T03:44:00;9.70;86.50
48579;DHT22;34357;51.948;6.132;2023-12-28T03:46:26;9.70;86.60
48579;DHT22;34357;51.948;6.132;2023-12-28T03:48:53;9.70;86.40
48579;DHT22;34357;51.948;6.132;2023-12-28T03:51:18;9.70;86.40
48579;DHT22;34357;51.948;6.132;2023-12-28T03:53:45;9.80;86.20
48579;DHT22;34357;51.948;6.132;2023-12-28T03:56:23;9.80;86.10
48579;DHT22;34357;51.948;6.132;2023-12-28T03:58:50;9.90;86.00
48579;DHT22;34357;51.948;6.132;2023-12-28T04:01:19;9.90;85.80
48579;DHT22;34357;51.948;6.132;2023-12-28T04:03:45;10.00;85.60
48579;DHT22;34357;51.948;6.132;2023-12-28T04:06:11;10.00;85.60
48579;DHT22;34357;51.948;6.132;2023-12-28T04:08:38;10.00;85.30
48579;DHT22;34357;51.948;6.132;2023-12-28T04:11:04;10.00;85.40
48579;DHT22;34357;51.948;6.132;2023-12-28T04:13:30;9.90;85.50
48579;DHT22;34357;51.948;6.132;2023-12-28T04:15:56;9.90;85.70
48579;DHT22;34357;51.948;6.132;2023-12-28T04:18:22;9.90;85.40
48579;DHT22;34357;51.948;6.132;2023-12-28T04:20:47;9.90;85.60
48579;DHT22;34357;51.948;6.132;2023-12-28T04:23:14;9.90;85.50
48579;DHT22;34357;51.948;6.132;2023-12-28T04:25:40;9.90;85.50
48579;DHT22;34357;51.948;6.132;2023-12-28T04:28:06;10.00;85.00
48579;DHT22;34357;51.948;6.132;2023-12-28T04:30:32;9.90;84.80
48579;DHT22;34357;51.948;6.132;2023-12-28T04:32:57;10.00;84.90
48579;DHT22;34357;51.948;6.132;2023-12-28T04:35:24;10.00;84.50
48579;DHT22;34357;51.948;6.132;2023-12-28T04:37:49;10.00;84.50
48579;DHT22;34357;51.948;6.132;2023-12-28T04:40:15;10.00;84.80
48579;DHT22;34357;51.948;6.132;2023-12-28T04:42:43;10.10;84.60
48579;DHT22;34357;51.948;6.132;2023-12-28T04:45:09;10.10;84.30
48579;DHT22;34357;51.948;6.132;2023-12-28T04:47:37;10.00;84.40
48579;DHT22;34357;51.948;6.132;2023-12-28T04:50:04;10.00;84.40
48579;DHT22;34357;51.948;6.132;2023-12-28T04:52:30;10.20;83.90
48579;DHT22;34357;51.948;6.132;2023-12-28T04:54:56;10.10;83.60
48579;DHT22;34357;51.948;6.132;2023-12-28T04:57:22;10.10;83.80
48579;DHT22;34357;51.948;6.132;2023-12-28T04:59:50;10.10;83.70
48579;DHT22;34357;51.948;6.132;2023-12-28T05:02:17;10.00;83.70
48579;DHT22;34357;51.948;6.132;2023-12-28T05:04:43;10.10;83.60
48579;DHT22;34357;51.948;6.132;2023-12-28T05:07:09;10.00;83.70
48579;DHT22;34357;51.948;6.132;2023-12-28T05:09:34;10.10;83.30
48579;DHT22;34357;51.948;6.132;2023-12-28T05:12:00;10.20;83.00
48579;DHT22;34357;51.948;6.132;2023-12-28T05:14:26;10.10;83.00
48579;DHT22;34357;51.948;6.132;2023-12-28T05:16:52;10.30;82.30
48579;DHT22;34357;51.948;6.132;2023-12-28T05:19:17;10.40;82.10
48579;DHT22;34357;51.948;6.132;2023-12-28T05:21:43;10.30;82.70
48579;DHT22;34357;51.948;6.132;2023-12-28T05:24:09;10.30;82.60
48579;DHT22;34357;51.948;6.132;2023-12-28T05:26:35;10.30;82.40
48579;DHT22;34357;51.948;6.132;2023-12-28T05:29:01;10.30;82.30
48579;DHT22;34357;51.948;6.132;2023-12-28T05:31:26;10.40;81.90
48579;DHT22;34357;51.948;6.132;2023-12-28T05:33:52;10.50;81.20
48579;DHT22;34357;51.948;6.132;2023-12-28T05:36:18;10.50;81.00
48579;DHT22;34357;51.948;6.132;2023-12-28T05:38:44;10.50;80.90
48579;DHT22;34357;51.948;6.132;2023-12-28T05:41:10;10.60;80.50
48579;DHT22;34357;51.948;6.132;2023-12-28T05:43:36;10.70;79.90
48579;DHT22;34357;51.948;6.132;2023-12-28T05:46:02;10.60;80.10
48579;DHT22;34357;51.948;6.132;2023-12-28T05:48:27;10.70;79.60
48579;DHT22;34357;51.948;6.132;2023-12-28T05:50:53;10.70;79.80
48579;DHT22;34357;51.948;6.132;2023-12-28T05:53:19;10.70;79.70
48579;DHT22;34357;51.948;6.132;2023-12-28T05:55:44;10.70;79.70
48579;DHT22;34357;51.948;6.132;2023-12-28T05:58:10;10.70;79.40
48579;DHT22;34357;51.948;6.132;2023-12-28T06:00:36;10.70;79.10
48579;DHT22;34357;51.948;6.132;2023-12-28T06:03:02;10.80;79.20
48579;DHT22;34357;51.948;6.132;2023-12-28T06:05:28;10.80;79.00
48579;DHT22;34357;51.948;6.132;2023-12-28T06:07:54;10.70;79.10
48579;DHT22;34357;51.948;6.132;2023-12-28T06:10:19;10.80;79.30
48579;DHT22;34357;51.948;6.132;2023-12-28T06:12:45;10.70;79.40
48579;DHT22;34357;51.948;6.132;2023-12-28T06:15:11;10.80;79.00
48579;DHT22;34357;51.948;6.132;2023-12-28T06:17:37;10.70;78.80
48579;DHT22;34357;51.948;6.132;2023-12-28T06:20:03;10.70;79.10
48579;DHT22;34357;51.948;6.132;2023-12-28T06:22:29;10.70;79.00
48579;DHT22;34357;51.948;6.132;2023-12-28T06:24:55;10.70;79.20
48579;DHT22;34357;51.948;6.132;2023-12-28T06:27:22;10.70;79.40
48579;DHT22;34357;51.948;6.132;2023-12-28T06:29:49;10.70;79.20
48579;DHT22;34357;51.948;6.132;2023-12-28T06:32:15;10.70;79.30
48579;DHT22;34357;51.948;6.132;2023-12-28T06:34:40;10.70;79.20
48579;DHT22;34357;51.948;6.132;2023-12-28T06:37:06;10.70;79.30
48579;DHT22;34357;51.948;6.132;2023-12-28T06:39:32;10.80;78.40
48579;DHT22;34357;51.948;6.132;2023-12-28T06:41:57;10.70;78.90
48579;DHT22;34357;51.948;6.132;2023-12-28T06:44:23;10.60;79.20
48579;DHT22;34357;51.948;6.132;2023-12-28T06:46:49;10.70;79.00
48579;DHT22;34357;51.948;6.132;2023-12-28T06:49:14;10.80;78.50
48579;DHT22;34357;51.948;6.132;2023-12-28T06:51:40;10.80;78.60
48579;DHT22;34357;51.948;6.132;2023-12-28T06:54:08;10.80;79.10
48579;DHT22;34357;51.948;6.132;2023-12-28T06:56:34;10.70;79.10
48579;DHT22;34357;51.948;6.132;2023-12-28T06:59:00;10.70;79.20
48579;DHT22;34357;51.948;6.132;2023-12-28T07:01:26;10.60;79.70
48579;DHT22;34357;51.948;6.132;2023-12-28T07:03:52;10.70;79.10
48579;DHT22;34357;51.948;6.132;2023-12-28T07:06:17;10.80;79.20
48579;DHT22;34357;51.948;6.132;2023-12-28T07:08:43;10.70;79.10
48579;DHT22;34357;51.948;6.132;2023-12-28T07:11:12;10.80;79.00
48579;DHT22;34357;51.948;6.132;2023-12-28T07:13:38;10.80;79.20
48579;DHT22;34357;51.948;6.132;2023-12-28T07:16:04;10.80;79.40
48579;DHT22;34357;51.948;6.132;2023-12-28T07:18:30;10.70;79.20
48579;DHT22;34357;51.948;6.132;2023-12-28T07:20:55;10.80;79.10
48579;DHT22;34357;51.948;6.132;2023-12-28T07:23:21;10.80;78.90
48579;DHT22;34357;51.948;6.132;2023-12-28T07:25:47;10.70;79.10
48579;DHT22;34357;51.948;6.132;2023-12-28T07:28:13;10.80;79.30
48579;DHT22;34357;51.948;6.132;2023-12-28T07:30:39;10.80;79.10
48579;DHT22;34357;51.948;6.132;2023-12-28T07:33:05;10.80;79.20
48579;DHT22;34357;51.948;6.132;2023-12-28T07:35:30;10.80;79.00
48579;DHT22;34357;51.948;6.132;2023-12-28T07:37:56;10.80;79.30
48579;DHT22;34357;51.948;6.132;2023-12-28T07:40:22;10.70;79.50
48579;DHT22;34357;51.948;6.132;2023-12-28T07:42:47;10.70;79.40
48579;DHT22;34357;51.948;6.132;2023-12-28T07:45:13;10.80;79.00
48579;DHT22;34357;51.948;6.132;2023-12-28T07:47:39;10.70;79.50
48579;DHT22;34357;51.948;6.132;2023-12-28T07:50:05;10.70;79.50
48579;DHT22;34357;51.948;6.132;2023-12-28T07:52:30;10.70;79.60
48579;DHT22;34357;51.948;6.132;2023-12-28T07:54:56;10.70;79.40
48579;DHT22;34357;51.948;6.132;2023-12-28T07:57:22;10.70;79.20
48579;DHT22;34357;51.948;6.132;2023-12-28T07:59:48;10.80;78.90
48579;DHT22;34357;51.948;6.132;2023-12-28T08:02:13;10.80;79.00
48579;DHT22;34357;51.948;6.132;2023-12-28T08:04:39;10.80;78.80
48579;DHT22;34357;51.948;6.132;2023-12-28T08:07:05;10.70;79.10
48579;DHT22;34357;51.948;6.132;2023-12-28T08:09:32;10.70;79.20
48579;DHT22;34357;51.948;6.132;2023-12-28T08:11:58;10.70;79.10
48579;DHT22;34357;51.948;6.132;2023-12-28T08:14:23;10.70;79.30
48579;DHT22;34357;51.948;6.132;2023-12-28T08:16:49;10.80;79.20
48579;DHT22;34357;51.948;6.132;2023-12-28T08:19:15;10.80;78.60
48579;DHT22;34357;51.948;6.132;2023-12-28T08:21:40;10.80;78.50
48579;DHT22;34357;51.948;6.132;2023-12-28T08:24:06;10.80;79.00
48579;DHT22;34357;51.948;6.132;2023-12-28T08:26:32;10.80;78.80
48579;DHT22;34357;51.948;6.132;2023-12-28T08:28:58;10.80;78.70
48579;DHT22;34357;51.948;6.132;2023-12-28T08:31:24;10.80;79.00
48579;DHT22;34357;51.948;6.132;2023-12-28T08:33:50;10.80;79.00
48579;DHT22;34357;51.948;6.132;2023-12-28T08:36:16;10.90;78.70
48579;DHT22;34357;51.948;6.132;2023-12-28T08:38:43;10.90;78.90
48579;DHT22;34357;51.948;6.132;2023-12-28T08:41:20;10.90;78.60
48579;DHT22;34357;51.948;6.132;2023-12-28T08:43:46;10.90;78.80
48579;DHT22;34357;51.948;6.132;2023-12-28T08:46:13;10.90;78.80
48579;DHT22;34357;51.948;6.132;2023-12-28T08:48:40;10.80;79.10
48579;DHT22;34357;51.948;6.132;2023-12-28T08:51:06;10.90;78.90
48579;DHT22;34357;51.948;6.132;2023-12-28T08:53:32;10.90;78.90
48579;DHT22;34357;51.948;6.132;2023-12-28T08:55:58;10.90;79.20
48579;DHT22;34357;51.948;6.132;2023-12-28T08:58:23;10.90;79.10
48579;DHT22;34357;51.948;6.132;2023-12-28T09:00:49;10.90;79.30
48579;DHT22;34357;51.948;6.132;2023-12-28T09:03:15;11.00;78.80
48579;DHT22;34357;51.948;6.132;2023-12-28T09:05:40;11.00;79.30
48579;DHT22;34357;51.948;6.132;2023-12-28T09:08:06;11.10;78.90
48579;DHT22;34357;51.948;6.132;2023-12-28T09:10:33;11.10;79.20
48579;DHT22;34357;51.948;6.132;2023-12-28T09:12:59;11.00;79.00
48579;DHT22;34357;51.948;6.132;2023-12-28T09:15:25;11.00;78.60
48579;DHT22;34357;51.948;6.132;2023-12-28T09:17:51;11.00;78.50
48579;DHT22;34357;51.948;6.132;2023-12-28T09:20:18;11.00;79.10
48579;DHT22;34357;51.948;6.132;2023-12-28T09:22:44;11.00;79.20
48579;DHT22;34357;51.948;6.132;2023-12-28T09:25:11;11.00;78.80
48579;DHT22;34357;51.948;6.132;2023-12-28T09:27:37;11.00;78.90
48579;DHT22;34357;51.948;6.132;2023-12-28T09:30:03;10.90;79.40
48579;DHT22;34357;51.948;6.132;2023-12-28T09:32:29;11.00;78.60
48579;DHT22;34357;51.948;6.132;2023-12-28T09:34:55;11.00;78.90
48579;DHT22;34357;51.948;6.132;2023-12-28T09:37:20;11.00;78.80
48579;DHT22;34357;51.948;6.132;2023-12-28T09:39:46;11.00;79.20
48579;DHT22;34357;51.948;6.132;2023-12-28T09:42:25;11.10;78.30
48579;DHT22;34357;51.948;6.132;2023-12-28T09:44:54;11.10;78.40
48579;DHT22;34357;51.948;6.132;2023-12-28T09:47:20;11.20;77.90
48579;DHT22;34357;51.948;6.132;2023-12-28T09:49:47;11.10;78.90
48579;DHT22;34357;51.948;6.132;2023-12-28T09:52:13;11.10;78.80
48579;DHT22;34357;51.948;6.132;2023-12-28T09:54:38;11.10;78.50
48579;DHT22;34357;51.948;6.132;2023-12-28T09:57:05;11.10;78.60
48579;DHT22;34357;51.948;6.132;2023-12-28T09:59:31;11.20;78.20
48579;DHT22;34357;51.948;6.132;2023-12-28T10:01:58;11.20;78.20
48579;DHT22;34357;51.948;6.132;2023-12-28T10:04:27;11.20;78.10
48579;DHT22;34357;51.948;6.132;2023-12-28T10:06:54;11.30;77.90
48579;DHT22;34357;51.948;6.132;2023-12-28T10:09:21;11.30;77.50
48579;DHT22;34357;51.948;6.132;2023-12-28T10:11:47;11.40;78.00
48579;DHT22;34357;51.948;6.132;2023-12-28T10:14:13;11.40;77.80
48579;DHT22;34357;51.948;6.132;2023-12-28T10:16:42;11.40;77.90
48579;DHT22;34357;51.948;6.132;2023-12-28T10:19:08;11.40;77.50
48579;DHT22;34357;51.948;6.132;2023-12-28T10:21:34;11.50;77.30
48579;DHT22;34357;51.948;6.132;2023-12-28T10:24:01;11.60;77.00
48579;DHT22;34357;51.948;6.132;2023-12-28T10:26:27;11.50;76.80
48579;DHT22;34357;51.948;6.132;2023-12-28T10:29:00;11.60;76.20
48579;DHT22;34357;51.948;6.132;2023-12-28T10:31:27;11.60;75.80
48579;DHT22;34357;51.948;6.132;2023-12-28T10:33:53;11.60;75.90
48579;DHT22;34357;51.948;6.132;2023-12-28T10:36:19;11.60;75.90
48579;DHT22;34357;51.948;6.132;2023-12-28T10:38:47;11.50;76.30
48579;DHT22;34357;51.948;6.132;2023-12-28T10:41:15;11.50;76.40
48579;DHT22;34357;51.948;6.132;2023-12-28T10:46:27;11.40;76.20
48579;DHT22;34357;51.948;6.132;2023-12-28T10:49:19;11.50;75.80
48579;DHT22;34357;51.948;6.132;2023-12-28T10:51:50;11.50;75.20
48579;DHT22;34357;51.948;6.132;2023-12-28T10:57:01;11.50;75.30
48579;DHT22;34357;51.948;6.132;2023-12-28T11:00:16;11.50;75.70
48579;DHT22;34357;51.948;6.132;2023-12-28T11:02:48;11.50;75.90
48579;DHT22;34357;51.948;6.132;2023-12-28T11:05:21;11.50;75.50
48579;DHT22;34357;51.948;6.132;2023-12-28T11:07:49;11.40;75.70
48579;DHT22;34357;51.948;6.132;2023-12-28T11:10:16;11.40;76.00
48579;DHT22;34357;51.948;6.132;2023-12-28T11:12:43;11.40;76.20
48579;DHT22;34357;51.948;6.132;2023-12-28T11:15:10;11.40;75.70
48579;DHT22;34357;51.948;6.132;2023-12-28T11:17:39;11.40;76.10
48579;DHT22;34357;51.948;6.132;2023-12-28T11:20:06;11.40;76.00
48579;DHT22;34357;51.948;6.132;2023-12-28T11:22:33;11.50;76.20
48579;DHT22;34357;51.948;6.132;2023-12-28T11:24:59;11.50;76.40
48579;DHT22;34357;51.948;6.132;2023-12-28T11:27:25;11.50;75.80
48579;DHT22;34357;51.948;6.132;2023-12-28T11:29:58;11.40;76.20
48579;DHT22;34357;51.948;6.132;2023-12-28T11:32:24;11.50;75.90
48579;DHT22;34357;51.948;6.132;2023-12-28T11:34:59;11.50;76.00
48579;DHT22;34357;51.948;6.132;2023-12-28T11:37:26;11.50;75.10
48579;DHT22;34357;51.948;6.132;2023-12-28T11:39:53;11.40;75.30
48579;DHT22;34357;51.948;6.132;2023-12-28T11:42:20;11.50;75.60
48579;DHT22;34357;51.948;6.132;2023-12-28T11:44:47;11.50;75.30
48579;DHT22;34357;51.948;6.132;2023-12-28T11:47:22;11.50;75.20
48579;DHT22;34357;51.948;6.132;2023-12-28T11:49:48;11.50;75.20
48579;DHT22;34357;51.948;6.132;2023-12-28T11:52:28;11.50;75.40
48579;DHT22;34357;51.948;6.132;2023-12-28T11:54:54;11.50;75.90
48579;DHT22;34357;51.948;6.132;2023-12-28T11:57:21;11.50;75.60
48579;DHT22;34357;51.948;6.132;2023-12-28T11:59:52;11.50;76.60
48579;DHT22;34357;51.948;6.132;2023-12-28T12:02:19;11.50;76.00
48579;DHT22;34357;51.948;6.132;2023-12-28T12:04:44;11.40;76.20
48579;DHT22;34357;51.948;6.132;2023-12-28T12:07:10;11.50;76.20
48579;DHT22;34357;51.948;6.132;2023-12-28T12:09:36;11.50;76.50
48579;DHT22;34357;51.948;6.132;2023-12-28T12:12:02;11.50;76.50
48579;DHT22;34357;51.948;6.132;2023-12-28T12:14:28;11.40;76.70
48579;DHT22;34357;51.948;6.132;2023-12-28T12:16:55;11.30;76.80
48579;DHT22;34357;51.948;6.132;2023-12-28T12:19:24;11.40;77.10
48579;DHT22;34357;51.948;6.132;2023-12-28T12:21:54;11.40;76.90
48579;DHT22;34357;51.948;6.132;2023-12-28T12:24:21;11.40;76.40
48579;DHT22;34357;51.948;6.132;2023-12-28T12:26:47;11.40;76.70
48579;DHT22;34357;51.948;6.132;2023-12-28T12:29:13;11.40;76.60
48579;DHT22;34357;51.948;6.132;2023-12-28T12:31:42;11.40;76.30
48579;DHT22;34357;51.948;6.132;2023-12-28T12:34:10;11.30;76.50
48579;DHT22;34357;51.948;6.132;2023-12-28T12:36:37;11.40;76.60
48579;DHT22;34357;51.948;6.132;2023-12-28T12:39:03;11.30;77.30
48579;DHT22;34357;51.948;6.132;2023-12-28T12:41:33;11.30;77.10
48579;DHT22;34357;51.948;6.132;2023-12-28T12:43:59;11.30;77.00
48579;DHT22;34357;51.948;6.132;2023-12-28T12:46:26;11.30;77.00
48579;DHT22;34357;51.948;6.132;2023-12-28T12:48:59;11.30;77.30
48579;DHT22;34357;51.948;6.132;2023-12-28T12:51:26;11.30;76.90
48579;DHT22;34357;51.948;6.132;2023-12-28T12:53:59;11.30;77.00
48579;DHT22;34357;51.948;6.132;2023-12-28T12:56:28;11.30;77.00
48579;DHT22;34357;51.948;6.132;2023-12-28T12:58:54;11.30;76.80
48579;DHT22;34357;51.948;6.132;2023-12-28T13:01:21;11.30;77.00
48579;DHT22;34357;51.948;6.132;2023-12-28T13:03:46;11.30;76.40
48579;DHT22;34357;51.948;6.132;2023-12-28T13:06:12;11.40;76.80
48579;DHT22;34357;51.948;6.132;2023-12-28T13:08:38;11.40;76.40
48579;DHT22;34357;51.948;6.132;2023-12-28T13:11:05;11.40;76.30
48579;DHT22;34357;51.948;6.132;2023-12-28T13:13:33;11.30;76.40
48579;DHT22;34357;51.948;6.132;2023-12-28T13:15:59;11.30;76.80
48579;DHT22;34357;51.948;6.132;2023-12-28T13:18:24;11.30;76.50
48579;DHT22;34357;51.948;6.132;2023-12-28T13:20:50;11.30;76.70
48579;DHT22;34357;51.948;6.132;2023-12-28T13:23:16;11.30;76.50
48579;DHT22;34357;51.948;6.132;2023-12-28T13:25:41;11.20;76.60
48579;DHT22;34357;51.948;6.132;2023-12-28T13:28:08;11.30;76.50
48579;DHT22;34357;51.948;6.132;2023-12-28T13:30:35;11.20;76.50
48579;DHT22;34357;51.948;6.132;2023-12-28T13:33:03;11.20;76.40
48579;DHT22;34357;51.948;6.132;2023-12-28T13:35:28;11.20;76.90
48579;DHT22;34357;51.948;6.132;2023-12-28T13:37:54;11.30;76.70
48579;DHT22;34357;51.948;6.132;2023-12-28T13:40:20;11.20;76.60
48579;DHT22;34357;51.948;6.132;2023-12-28T13:42:46;11.30;76.50
48579;DHT22;34357;51.948;6.132;2023-12-28T13:45:12;11.30;76.50
48579;DHT22;34357;51.948;6.132;2023-12-28T13:47:38;11.30;76.80
48579;DHT22;34357;51.948;6.132;2023-12-28T13:50:04;11.30;76.30
48579;DHT22;34357;51.948;6.132;2023-12-28T13:52:32;11.20;76.80
48579;DHT22;34357;51.948;6.132;2023-12-28T13:54:57;11.20;76.60
48579;DHT22;34357;51.948;6.132;2023-12-28T13:57:23;11.20;76.70
48579;DHT22;34357;51.948;6.132;2023-12-28T13:59:49;11.20;77.10
48579;DHT22;34357;51.948;6.132;2023-12-28T14:02:14;11.20;76.90
48579;DHT22;34357;51.948;6.132;2023-12-28T14:04:40;11.20;76.60
48579;DHT22;34357;51.948;6.132;2023-12-28T14:07:06;11.30;76.50
48579;DHT22;34357;51.948;6.132;2023-12-28T14:09:31;11.20;76.70
48579;DHT22;34357;51.948;6.132;2023-12-28T14:11:58;11.20;76.40
48579;DHT22;34357;51.948;6.132;2023-12-28T14:14:24;11.20;76.80
48579;DHT22;34357;51.948;6.132;2023-12-28T14:16:50;11.20;76.50
48579;DHT22;34357;51.948;6.132;2023-12-28T14:19:16;11.20;77.10
48579;DHT22;34357;51.948;6.132;2023-12-28T14:21:41;11.10;77.40
48579;DHT22;34357;51.948;6.132;2023-12-28T14:24:09;11.10;77.30
48579;DHT22;34357;51.948;6.132;2023-12-28T14:26:40;11.10;77.50
48579;DHT22;34357;51.948;6.132;2023-12-28T14:29:08;11.10;78.20
48579;DHT22;34357;51.948;6.132;2023-12-28T14:31:34;11.10;78.20
48579;DHT22;34357;51.948;6.132;2023-12-28T14:34:00;11.10;78.00
48579;DHT22;34357;51.948;6.132;2023-12-28T14:36:32;11.10;78.20
48579;DHT22;34357;51.948;6.132;2023-12-28T14:39:00;11.00;78.10
48579;DHT22;34357;51.948;6.132;2023-12-28T14:41:26;11.00;78.20
48579;DHT22;34357;51.948;6.132;2023-12-28T14:43:53;10.90;78.30
48579;DHT22;34357;51.948;6.132;2023-12-28T14:46:18;11.00;78.70
48579;DHT22;34357;51.948;6.132;2023-12-28T14:48:44;11.00;78.20
48579;DHT22;34357;51.948;6.132;2023-12-28T14:51:10;11.00;78.50
48579;DHT22;34357;51.948;6.132;2023-12-28T14:53:36;11.00;78.40
48579;DHT22;34357;51.948;6.132;2023-12-28T14:56:01;11.00;78.30
48579;DHT22;34357;51.948;6.132;2023-12-28T14:58:27;11.00;78.50
48579;DHT22;34357;51.948;6.132;2023-12-28T15:00:55;10.90;78.80
48579;DHT22;34357;51.948;6.132;2023-12-28T15:03:20;10.90;78.70
48579;DHT22;34357;51.948;6.132;2023-12-28T15:05:46;10.90;78.70
48579;DHT22;34357;51.948;6.132;2023-12-28T15:08:12;10.90;78.90
48579;DHT22;34357;51.948;6.132;2023-12-28T15:10:38;10.90;78.50
48579;DHT22;34357;51.948;6.132;2023-12-28T15:13:04;10.90;78.40
48579;DHT22;34357;51.948;6.132;2023-12-28T15:15:30;10.90;78.70
48579;DHT22;34357;51.948;6.132;2023-12-28T15:17:56;11.00;78.60
48579;DHT22;34357;51.948;6.132;2023-12-28T15:20:23;11.00;78.30
48579;DHT22;34357;51.948;6.132;2023-12-28T15:22:49;11.00;78.30
48579;DHT22;34357;51.948;6.132;2023-12-28T15:25:15;11.00;78.00
48579;DHT22;34357;51.948;6.132;2023-12-28T15:27:41;11.00;78.40
48579;DHT22;34357;51.948;6.132;2023-12-28T15:30:08;11.00;78.20
48579;DHT22;34357;51.948;6.132;2023-12-28T15:32:34;11.00;77.80
48579;DHT22;34357;51.948;6.132;2023-12-28T15:35:00;11.00;78.00
48579;DHT22;34357;51.948;6.132;2023-12-28T15:37:27;10.90;78.00